sensor_id;sensor_type;location;lat;lon;timestamp;P1;durP1;ratioP1;P2;durP2;ratioP2
3280;SDS011;1652;51.318;6.202;2023-03-08T00:02:16;11.83;;;9.17;;
3280;SDS011;1652;51.318;6.202;2023-03-08T00:04:43;11.53;;;8.17;;
3280;SDS011;1652;51.318;6.202;2023-03-08T00:07:10;12.77;;;9.13;;
3280;SDS011;1652;51.318;6.202;2023-03-08T00:09:37;13.23;;;7.23;;
3280;SDS011;1652;51.318;6.202;2023-03-08T00:12:04;13.20;;;8.33;;
3280;SDS011;1652;51.318;6.202;2023-03-08T00:14:32;8.40;;;7.27;;
3280;SDS011;1652;51.318;6.202;2023-03-08T00:16:59;7.73;;;6.93;;
3280;SDS011;1652;51.318;6.202;2023-03-08T00:19:27;10.17;;;7.93;;
3280;SDS011;1652;51.318;6.202;2023-03-08T00:21:54;13.33;;;8.93;;
3280;SDS011;1652;51.318;6.202;2023-03-08T00:26:52;9.53;;;7.60;;
3280;SDS011;1652;51.318;6.202;2023-03-08T00:29:19;14.93;;;8.83;;
3280;SDS011;1652;51.318;6.202;2023-03-08T00:31:46;10.10;;;8.00;;
3280;SDS011;1652;51.318;6.202;2023-03-08T00:34:13;18.97;;;8.97;;
3280;SDS011;1652;51.318;6.202;2023-03-08T00:36:40;10.40;;;7.90;;
3280;SDS011;1652;51.318;6.202;2023-03-08T00:39:07;12.50;;;8.80;;
3280;SDS011;1652;51.318;6.202;2023-03-08T00:41:36;12.13;;;9.40;;
3280;SDS011;1652;51.318;6.202;2023-03-08T00:44:03;14.40;;;8.80;;
3280;SDS011;1652;51.318;6.202;2023-03-08T00:46:30;10.93;;;8.53;;
3280;SDS011;1652;51.318;6.202;2023-03-08T00:48:58;13.13;;;9.10;;
3280;SDS011;1652;51.318;6.202;2023-03-08T00:51:25;10.93;;;7.90;;
3280;SDS011;1652;51.318;6.202;2023-03-08T00:53:52;15.20;;;9.07;;
3280;SDS011;1652;51.318;6.202;2023-03-08T00:56:19;11.80;;;8.30;;
3280;SDS011;1652;51.318;6.202;2023-03-08T00:58:46;14.17;;;9.83;;
3280;SDS011;1652;51.318;6.202;2023-03-08T01:01:14;12.87;;;9.00;;
3280;SDS011;1652;51.318;6.202;2023-03-08T01:03:42;13.00;;;9.40;;
3280;SDS011;1652;51.318;6.202;2023-03-08T01:06:10;16.03;;;9.93;;
3280;SDS011;1652;51.318;6.202;2023-03-08T01:08:39;14.63;;;10.13;;
3280;SDS011;1652;51.318;6.202;2023-03-08T01:11:12;17.80;;;11.27;;
3280;SDS011;1652;51.318;6.202;2023-03-08T01:13:50;13.77;;;9.43;;
3280;SDS011;1652;51.318;6.202;2023-03-08T01:18:49;14.70;;;9.77;;
3280;SDS011;1652;51.318;6.202;2023-03-08T01:21:16;14.90;;;10.20;;
3280;SDS011;1652;51.318;6.202;2023-03-08T01:23:43;13.23;;;9.90;;
3280;SDS011;1652;51.318;6.202;2023-03-08T01:26:11;15.20;;;9.43;;
3280;SDS011;1652;51.318;6.202;2023-03-08T01:28:40;14.30;;;9.63;;
3280;SDS011;1652;51.318;6.202;2023-03-08T01:31:11;12.30;;;9.47;;
3280;SDS011;1652;51.318;6.202;2023-03-08T01:33:42;14.20;;;10.10;;
3280;SDS011;1652;51.318;6.202;2023-03-08T01:36:10;14.97;;;8.83;;
3280;SDS011;1652;51.318;6.202;2023-03-08T01:38:40;19.57;;;9.80;;
3280;SDS011;1652;51.318;6.202;2023-03-08T01:41:11;12.10;;;9.17;;
3280;SDS011;1652;51.318;6.202;2023-03-08T01:43:44;10.50;;;8.50;;
3280;SDS011;1652;51.318;6.202;2023-03-08T01:49:07;20.23;;;9.20;;
3280;SDS011;1652;51.318;6.202;2023-03-08T01:51:38;15.93;;;9.67;;
3280;SDS011;1652;51.318;6.202;2023-03-08T01:54:12;13.90;;;9.40;;
3280;SDS011;1652;51.318;6.202;2023-03-08T01:56:46;12.97;;;9.07;;
3280;SDS011;1652;51.318;6.202;2023-03-08T01:59:16;12.63;;;8.60;;
3280;SDS011;1652;51.318;6.202;2023-03-08T02:01:45;15.40;;;10.10;;
3280;SDS011;1652;51.318;6.202;2023-03-08T02:04:12;14.83;;;10.53;;
3280;SDS011;1652;51.318;6.202;2023-03-08T02:06:39;15.63;;;10.40;;
3280;SDS011;1652;51.318;6.202;2023-03-08T02:09:07;12.57;;;9.97;;
3280;SDS011;1652;51.318;6.202;2023-03-08T02:11:34;16.13;;;9.87;;
3280;SDS011;1652;51.318;6.202;2023-03-08T02:14:03;14.60;;;10.53;;
3280;SDS011;1652;51.318;6.202;2023-03-08T02:16:30;14.30;;;11.07;;
3280;SDS011;1652;51.318;6.202;2023-03-08T02:18:58;16.50;;;11.30;;
3280;SDS011;1652;51.318;6.202;2023-03-08T02:21:28;15.77;;;10.93;;
3280;SDS011;1652;51.318;6.202;2023-03-08T02:23:55;20.10;;;12.53;;
3280;SDS011;1652;51.318;6.202;2023-03-08T02:26:28;20.83;;;11.50;;
3280;SDS011;1652;51.318;6.202;2023-03-08T02:28:54;20.57;;;11.70;;
3280;SDS011;1652;51.318;6.202;2023-03-08T02:31:21;17.37;;;10.87;;
3280;SDS011;1652;51.318;6.202;2023-03-08T02:33:48;19.07;;;10.57;;
3280;SDS011;1652;51.318;6.202;2023-03-08T02:36:15;18.23;;;12.10;;
3280;SDS011;1652;51.318;6.202;2023-03-08T02:38:44;18.13;;;11.33;;
3280;SDS011;1652;51.318;6.202;2023-03-08T02:41:11;18.03;;;10.93;;
3280;SDS011;1652;51.318;6.202;2023-03-08T02:43:38;17.23;;;11.80;;
3280;SDS011;1652;51.318;6.202;2023-03-08T02:46:05;18.57;;;11.40;;
3280;SDS011;1652;51.318;6.202;2023-03-08T02:48:31;16.40;;;10.90;;
3280;SDS011;1652;51.318;6.202;2023-03-08T02:50:58;17.63;;;10.67;;
3280;SDS011;1652;51.318;6.202;2023-03-08T02:53:25;20.53;;;11.47;;
3280;SDS011;1652;51.318;6.202;2023-03-08T02:55:52;16.33;;;10.10;;
3280;SDS011;1652;51.318;6.202;2023-03-08T02:58:19;13.87;;;10.50;;
3280;SDS011;1652;51.318;6.202;2023-03-08T03:00:45;14.20;;;10.37;;
3280;SDS011;1652;51.318;6.202;2023-03-08T03:03:12;13.60;;;9.83;;
3280;SDS011;1652;51.318;6.202;2023-03-08T03:05:40;14.63;;;10.10;;
3280;SDS011;1652;51.318;6.202;2023-03-08T03:08:08;20.10;;;10.57;;
3280;SDS011;1652;51.318;6.202;2023-03-08T03:10:37;13.20;;;9.73;;
3280;SDS011;1652;51.318;6.202;2023-03-08T03:13:04;15.90;;;10.27;;
3280;SDS011;1652;51.318;6.202;2023-03-08T03:15:32;16.70;;;10.23;;
3280;SDS011;1652;51.318;6.202;2023-03-08T03:18:02;15.73;;;10.20;;
3280;SDS011;1652;51.318;6.202;2023-03-08T03:20:31;16.60;;;10.00;;
3280;SDS011;1652;51.318;6.202;2023-03-08T03:22:58;10.47;;;8.80;;
3280;SDS011;1652;51.318;6.202;2023-03-08T03:25:25;22.83;;;9.90;;
3280;SDS011;1652;51.318;6.202;2023-03-08T03:27:53;14.07;;;10.10;;
3280;SDS011;1652;51.318;6.202;2023-03-08T03:30:20;14.53;;;9.70;;
3280;SDS011;1652;51.318;6.202;2023-03-08T03:32:47;14.90;;;9.60;;
3280;SDS011;1652;51.318;6.202;2023-03-08T03:35:14;11.87;;;9.40;;
3280;SDS011;1652;51.318;6.202;2023-03-08T03:37:41;17.20;;;9.77;;
3280;SDS011;1652;51.318;6.202;2023-03-08T03:40:09;11.70;;;9.40;;
3280;SDS011;1652;51.318;6.202;2023-03-08T03:42:37;12.33;;;8.10;;
3280;SDS011;1652;51.318;6.202;2023-03-08T03:45:04;11.27;;;8.17;;
3280;SDS011;1652;51.318;6.202;2023-03-08T03:47:31;15.40;;;9.33;;
3280;SDS011;1652;51.318;6.202;2023-03-08T03:49:57;9.93;;;8.30;;
3280;SDS011;1652;51.318;6.202;2023-03-08T03:52:24;13.20;;;8.80;;
3280;SDS011;1652;51.318;6.202;2023-03-08T03:54:51;12.87;;;8.90;;
3280;SDS011;1652;51.318;6.202;2023-03-08T03:57:18;12.40;;;9.13;;
3280;SDS011;1652;51.318;6.202;2023-03-08T03:59:45;10.33;;;8.77;;
3280;SDS011;1652;51.318;6.202;2023-03-08T04:02:12;15.23;;;7.97;;
3280;SDS011;1652;51.318;6.202;2023-03-08T04:04:39;12.20;;;8.93;;
3280;SDS011;1652;51.318;6.202;2023-03-08T04:07:06;19.30;;;8.97;;
3280;SDS011;1652;51.318;6.202;2023-03-08T04:09:33;11.53;;;8.30;;
3280;SDS011;1652;51.318;6.202;2023-03-08T04:12:01;8.70;;;7.70;;
3280;SDS011;1652;51.318;6.202;2023-03-08T04:14:30;10.30;;;8.60;;
3280;SDS011;1652;51.318;6.202;2023-03-08T04:16:57;14.40;;;8.00;;
3280;SDS011;1652;51.318;6.202;2023-03-08T04:19:24;14.40;;;8.13;;
3280;SDS011;1652;51.318;6.202;2023-03-08T04:21:51;8.60;;;7.53;;
3280;SDS011;1652;51.318;6.202;2023-03-08T04:24:18;21.27;;;8.97;;
3280;SDS011;1652;51.318;6.202;2023-03-08T04:26:45;13.70;;;8.70;;
3280;SDS011;1652;51.318;6.202;2023-03-08T04:29:11;10.50;;;8.10;;
3280;SDS011;1652;51.318;6.202;2023-03-08T04:31:38;13.30;;;9.40;;
3280;SDS011;1652;51.318;6.202;2023-03-08T04:34:06;16.83;;;8.97;;
3280;SDS011;1652;51.318;6.202;2023-03-08T04:36:33;13.73;;;8.90;;
3280;SDS011;1652;51.318;6.202;2023-03-08T04:39:00;17.20;;;10.27;;
3280;SDS011;1652;51.318;6.202;2023-03-08T04:41:27;9.10;;;7.50;;
3280;SDS011;1652;51.318;6.202;2023-03-08T04:43:54;13.07;;;8.27;;
3280;SDS011;1652;51.318;6.202;2023-03-08T04:46:23;13.03;;;8.27;;
3280;SDS011;1652;51.318;6.202;2023-03-08T04:48:52;12.40;;;9.40;;
3280;SDS011;1652;51.318;6.202;2023-03-08T04:51:22;10.33;;;8.30;;
3280;SDS011;1652;51.318;6.202;2023-03-08T04:53:50;13.97;;;8.60;;
3280;SDS011;1652;51.318;6.202;2023-03-08T04:56:17;12.80;;;8.60;;
3280;SDS011;1652;51.318;6.202;2023-03-08T04:58:44;11.43;;;7.43;;
3280;SDS011;1652;51.318;6.202;2023-03-08T05:01:13;13.33;;;9.03;;
3280;SDS011;1652;51.318;6.202;2023-03-08T05:03:41;15.40;;;8.13;;
3280;SDS011;1652;51.318;6.202;2023-03-08T05:06:09;12.10;;;8.57;;
3280;SDS011;1652;51.318;6.202;2023-03-08T05:08:39;12.33;;;8.83;;
3280;SDS011;1652;51.318;6.202;2023-03-08T05:11:06;15.20;;;7.90;;
3280;SDS011;1652;51.318;6.202;2023-03-08T05:13:35;12.30;;;7.63;;
3280;SDS011;1652;51.318;6.202;2023-03-08T05:16:04;10.80;;;7.60;;
3280;SDS011;1652;51.318;6.202;2023-03-08T05:18:33;11.37;;;7.57;;
3280;SDS011;1652;51.318;6.202;2023-03-08T05:21:02;16.93;;;8.63;;
3280;SDS011;1652;51.318;6.202;2023-03-08T05:23:30;15.23;;;7.83;;
3280;SDS011;1652;51.318;6.202;2023-03-08T05:25:58;10.83;;;7.70;;
3280;SDS011;1652;51.318;6.202;2023-03-08T05:28:29;15.23;;;8.60;;
3280;SDS011;1652;51.318;6.202;2023-03-08T05:31:01;13.43;;;8.20;;
3280;SDS011;1652;51.318;6.202;2023-03-08T05:33:36;13.33;;;8.57;;
3280;SDS011;1652;51.318;6.202;2023-03-08T05:36:04;14.43;;;8.47;;
3280;SDS011;1652;51.318;6.202;2023-03-08T05:38:32;12.60;;;8.87;;
3280;SDS011;1652;51.318;6.202;2023-03-08T05:40:59;13.10;;;8.63;;
3280;SDS011;1652;51.318;6.202;2023-03-08T05:43:27;14.70;;;8.83;;
3280;SDS011;1652;51.318;6.202;2023-03-08T05:45:55;16.33;;;8.43;;
3280;SDS011;1652;51.318;6.202;2023-03-08T05:48:23;11.63;;;8.27;;
3280;SDS011;1652;51.318;6.202;2023-03-08T05:50:51;17.37;;;8.93;;
3280;SDS011;1652;51.318;6.202;2023-03-08T05:53:18;17.03;;;8.73;;
3280;SDS011;1652;51.318;6.202;2023-03-08T05:55:46;24.03;;;8.53;;
3280;SDS011;1652;51.318;6.202;2023-03-08T05:58:13;17.93;;;8.43;;
3280;SDS011;1652;51.318;6.202;2023-03-08T06:00:40;18.00;;;9.50;;
3280;SDS011;1652;51.318;6.202;2023-03-08T06:03:07;21.80;;;10.10;;
3280;SDS011;1652;51.318;6.202;2023-03-08T06:05:34;16.07;;;9.20;;
3280;SDS011;1652;51.318;6.202;2023-03-08T06:08:01;22.43;;;9.87;;
3280;SDS011;1652;51.318;6.202;2023-03-08T06:10:28;16.20;;;9.80;;
3280;SDS011;1652;51.318;6.202;2023-03-08T06:12:55;18.37;;;8.77;;
3280;SDS011;1652;51.318;6.202;2023-03-08T06:15:22;14.67;;;8.80;;
3280;SDS011;1652;51.318;6.202;2023-03-08T06:17:51;15.53;;;9.00;;
3280;SDS011;1652;51.318;6.202;2023-03-08T06:20:19;19.33;;;8.90;;
3280;SDS011;1652;51.318;6.202;2023-03-08T06:22:46;10.97;;;7.60;;
3280;SDS011;1652;51.318;6.202;2023-03-08T06:25:13;15.03;;;7.87;;
3280;SDS011;1652;51.318;6.202;2023-03-08T06:27:39;14.93;;;8.50;;
3280;SDS011;1652;51.318;6.202;2023-03-08T06:30:06;10.70;;;7.33;;
3280;SDS011;1652;51.318;6.202;2023-03-08T06:32:34;12.40;;;7.37;;
3280;SDS011;1652;51.318;6.202;2023-03-08T06:35:02;16.77;;;8.73;;
3280;SDS011;1652;51.318;6.202;2023-03-08T06:37:33;12.50;;;7.73;;
3280;SDS011;1652;51.318;6.202;2023-03-08T06:40:00;7.17;;;5.73;;
3280;SDS011;1652;51.318;6.202;2023-03-08T06:42:28;5.97;;;5.10;;
3280;SDS011;1652;51.318;6.202;2023-03-08T06:45:07;10.77;;;5.83;;
3280;SDS011;1652;51.318;6.202;2023-03-08T06:47:34;6.70;;;5.77;;
3280;SDS011;1652;51.318;6.202;2023-03-08T06:50:01;7.77;;;5.70;;
3280;SDS011;1652;51.318;6.202;2023-03-08T06:52:28;9.97;;;6.67;;
3280;SDS011;1652;51.318;6.202;2023-03-08T06:55:03;10.23;;;6.60;;
3280;SDS011;1652;51.318;6.202;2023-03-08T06:57:30;9.63;;;7.50;;
3280;SDS011;1652;51.318;6.202;2023-03-08T06:59:57;9.83;;;6.33;;
3280;SDS011;1652;51.318;6.202;2023-03-08T07:02:24;16.70;;;7.60;;
3280;SDS011;1652;51.318;6.202;2023-03-08T07:04:50;12.03;;;6.90;;
3280;SDS011;1652;51.318;6.202;2023-03-08T07:07:17;8.90;;;6.97;;
3280;SDS011;1652;51.318;6.202;2023-03-08T07:09:44;11.00;;;7.20;;
3280;SDS011;1652;51.318;6.202;2023-03-08T07:12:11;13.10;;;6.87;;
3280;SDS011;1652;51.318;6.202;2023-03-08T07:14:37;10.67;;;7.37;;
3280;SDS011;1652;51.318;6.202;2023-03-08T07:17:04;13.60;;;8.53;;
3280;SDS011;1652;51.318;6.202;2023-03-08T07:19:31;18.33;;;8.40;;
3280;SDS011;1652;51.318;6.202;2023-03-08T07:21:58;15.67;;;8.87;;
3280;SDS011;1652;51.318;6.202;2023-03-08T07:24:24;20.03;;;9.17;;
3280;SDS011;1652;51.318;6.202;2023-03-08T07:26:51;20.30;;;9.00;;
3280;SDS011;1652;51.318;6.202;2023-03-08T07:29:18;32.00;;;11.33;;
3280;SDS011;1652;51.318;6.202;2023-03-08T07:31:45;15.17;;;9.30;;
3280;SDS011;1652;51.318;6.202;2023-03-08T07:34:12;18.60;;;10.07;;
3280;SDS011;1652;51.318;6.202;2023-03-08T07:36:38;17.60;;;9.80;;
3280;SDS011;1652;51.318;6.202;2023-03-08T07:39:05;18.30;;;10.30;;
3280;SDS011;1652;51.318;6.202;2023-03-08T07:41:32;13.93;;;8.97;;
3280;SDS011;1652;51.318;6.202;2023-03-08T07:44:00;28.27;;;10.60;;
3280;SDS011;1652;51.318;6.202;2023-03-08T07:46:27;11.73;;;8.03;;
3280;SDS011;1652;51.318;6.202;2023-03-08T07:48:55;13.20;;;7.73;;
3280;SDS011;1652;51.318;6.202;2023-03-08T07:51:22;16.67;;;9.03;;
3280;SDS011;1652;51.318;6.202;2023-03-08T07:53:50;12.33;;;6.60;;
3280;SDS011;1652;51.318;6.202;2023-03-08T07:56:17;10.20;;;6.77;;
3280;SDS011;1652;51.318;6.202;2023-03-08T07:58:44;8.60;;;5.60;;
3280;SDS011;1652;51.318;6.202;2023-03-08T08:01:12;8.57;;;5.63;;
3280;SDS011;1652;51.318;6.202;2023-03-08T08:03:39;8.97;;;5.23;;
3280;SDS011;1652;51.318;6.202;2023-03-08T08:06:06;10.67;;;5.97;;
3280;SDS011;1652;51.318;6.202;2023-03-08T08:08:33;13.37;;;8.03;;
3280;SDS011;1652;51.318;6.202;2023-03-08T08:11:00;11.90;;;7.90;;
3280;SDS011;1652;51.318;6.202;2023-03-08T08:13:27;13.43;;;8.50;;
3280;SDS011;1652;51.318;6.202;2023-03-08T08:15:58;14.27;;;8.47;;
3280;SDS011;1652;51.318;6.202;2023-03-08T08:18:26;13.87;;;8.57;;
3280;SDS011;1652;51.318;6.202;2023-03-08T08:21:03;18.97;;;9.97;;
3280;SDS011;1652;51.318;6.202;2023-03-08T08:23:32;16.20;;;8.97;;
3280;SDS011;1652;51.318;6.202;2023-03-08T08:26:02;21.03;;;10.37;;
3280;SDS011;1652;51.318;6.202;2023-03-08T08:28:30;14.80;;;8.37;;
3280;SDS011;1652;51.318;6.202;2023-03-08T08:31:04;14.23;;;8.00;;
3280;SDS011;1652;51.318;6.202;2023-03-08T08:33:33;14.57;;;9.57;;
3280;SDS011;1652;51.318;6.202;2023-03-08T08:36:02;21.93;;;9.90;;
3280;SDS011;1652;51.318;6.202;2023-03-08T08:38:30;10.93;;;8.00;;
3280;SDS011;1652;51.318;6.202;2023-03-08T08:41:01;15.13;;;9.00;;
3280;SDS011;1652;51.318;6.202;2023-03-08T08:43:29;12.20;;;7.90;;
3280;SDS011;1652;51.318;6.202;2023-03-08T08:45:57;12.50;;;7.97;;
3280;SDS011;1652;51.318;6.202;2023-03-08T08:48:25;10.77;;;7.50;;
3280;SDS011;1652;51.318;6.202;2023-03-08T08:50:52;11.63;;;8.97;;
3280;SDS011;1652;51.318;6.202;2023-03-08T08:53:19;9.50;;;6.47;;
3280;SDS011;1652;51.318;6.202;2023-03-08T08:55:47;12.10;;;7.97;;
3280;SDS011;1652;51.318;6.202;2023-03-08T08:58:14;14.00;;;8.80;;
3280;SDS011;1652;51.318;6.202;2023-03-08T09:00:40;12.77;;;9.47;;
3280;SDS011;1652;51.318;6.202;2023-03-08T09:03:08;13.60;;;8.13;;
3280;SDS011;1652;51.318;6.202;2023-03-08T09:05:37;12.57;;;8.00;;
3280;SDS011;1652;51.318;6.202;2023-03-08T09:08:05;11.87;;;7.10;;
3280;SDS011;1652;51.318;6.202;2023-03-08T09:10:34;10.20;;;6.90;;
3280;SDS011;1652;51.318;6.202;2023-03-08T09:13:03;10.60;;;6.90;;
3280;SDS011;1652;51.318;6.202;2023-03-08T09:15:30;6.83;;;6.23;;
3280;SDS011;1652;51.318;6.202;2023-03-08T09:17:57;6.57;;;5.87;;
3280;SDS011;1652;51.318;6.202;2023-03-08T09:20:24;8.17;;;6.20;;
3280;SDS011;1652;51.318;6.202;2023-03-08T09:22:50;5.20;;;4.80;;
3280;SDS011;1652;51.318;6.202;2023-03-08T09:25:17;8.10;;;6.90;;
3280;SDS011;1652;51.318;6.202;2023-03-08T09:27:47;13.00;;;8.53;;
3280;SDS011;1652;51.318;6.202;2023-03-08T09:30:14;34.80;;;8.47;;
3280;SDS011;1652;51.318;6.202;2023-03-08T09:32:42;11.57;;;8.10;;
3280;SDS011;1652;51.318;6.202;2023-03-08T09:35:09;12.00;;;8.77;;
3280;SDS011;1652;51.318;6.202;2023-03-08T09:37:36;15.60;;;8.67;;
3280;SDS011;1652;51.318;6.202;2023-03-08T09:40:03;13.43;;;7.90;;
3280;SDS011;1652;51.318;6.202;2023-03-08T09:42:36;9.20;;;8.20;;
3280;SDS011;1652;51.318;6.202;2023-03-08T09:47:46;9.23;;;7.23;;
3280;SDS011;1652;51.318;6.202;2023-03-08T09:50:31;9.10;;;8.13;;
3280;SDS011;1652;51.318;6.202;2023-03-08T09:53:14;8.47;;;7.70;;
3280;SDS011;1652;51.318;6.202;2023-03-08T09:55:56;8.60;;;6.93;;
3280;SDS011;1652;51.318;6.202;2023-03-08T10:01:16;9.20;;;7.20;;
3280;SDS011;1652;51.318;6.202;2023-03-08T10:06:31;7.07;;;6.10;;
3280;SDS011;1652;51.318;6.202;2023-03-08T10:09:21;6.23;;;5.73;;
3280;SDS011;1652;51.318;6.202;2023-03-08T10:11:59;6.80;;;6.10;;
3280;SDS011;1652;51.318;6.202;2023-03-08T10:14:40;4.57;;;4.27;;
3280;SDS011;1652;51.318;6.202;2023-03-08T10:17:15;5.03;;;4.67;;
3280;SDS011;1652;51.318;6.202;2023-03-08T10:20:04;8.13;;;7.30;;
3280;SDS011;1652;51.318;6.202;2023-03-08T10:22:39;6.00;;;5.50;;
3280;SDS011;1652;51.318;6.202;2023-03-08T10:25:20;6.00;;;5.60;;
3280;SDS011;1652;51.318;6.202;2023-03-08T10:27:49;7.43;;;6.73;;
3280;SDS011;1652;51.318;6.202;2023-03-08T10:30:19;5.77;;;5.37;;
3280;SDS011;1652;51.318;6.202;2023-03-08T10:32:49;4.57;;;4.30;;
3280;SDS011;1652;51.318;6.202;2023-03-08T10:35:35;9.17;;;5.80;;
3280;SDS011;1652;51.318;6.202;2023-03-08T10:38:04;6.47;;;5.97;;
3280;SDS011;1652;51.318;6.202;2023-03-08T10:40:41;4.60;;;4.30;;
3280;SDS011;1652;51.318;6.202;2023-03-08T10:43:13;6.53;;;5.87;;
3280;SDS011;1652;51.318;6.202;2023-03-08T10:45:44;7.93;;;7.13;;
3280;SDS011;1652;51.318;6.202;2023-03-08T10:48:22;5.87;;;5.50;;
3280;SDS011;1652;51.318;6.202;2023-03-08T10:50:56;13.40;;;4.97;;
3280;SDS011;1652;51.318;6.202;2023-03-08T10:53:24;6.70;;;6.07;;
3280;SDS011;1652;51.318;6.202;2023-03-08T10:55:55;6.47;;;5.83;;
3280;SDS011;1652;51.318;6.202;2023-03-08T10:58:34;6.67;;;6.07;;
3280;SDS011;1652;51.318;6.202;2023-03-08T11:01:04;11.27;;;7.03;;
3280;SDS011;1652;51.318;6.202;2023-03-08T11:03:33;8.43;;;7.67;;
3280;SDS011;1652;51.318;6.202;2023-03-08T11:06:01;6.00;;;5.50;;
3280;SDS011;1652;51.318;6.202;2023-03-08T11:08:33;7.77;;;7.03;;
3280;SDS011;1652;51.318;6.202;2023-03-08T11:11:07;9.17;;;7.53;;
3280;SDS011;1652;51.318;6.202;2023-03-08T11:13:42;8.70;;;7.57;;
3280;SDS011;1652;51.318;6.202;2023-03-08T11:18:56;9.60;;;8.60;;
3280;SDS011;1652;51.318;6.202;2023-03-08T11:27:15;9.60;;;8.60;;
3280;SDS011;1652;51.318;6.202;2023-03-08T11:35:28;9.50;;;8.30;;
3280;SDS011;1652;51.318;6.202;2023-03-08T11:38:23;9.17;;;7.90;;
3280;SDS011;1652;51.318;6.202;2023-03-08T11:57:41;7.97;;;7.20;;
3280;SDS011;1652;51.318;6.202;2023-03-08T12:00:18;9.57;;;8.57;;
3280;SDS011;1652;51.318;6.202;2023-03-08T12:02:56;8.80;;;7.27;;
3280;SDS011;1652;51.318;6.202;2023-03-08T12:05:29;8.27;;;7.20;;
3280;SDS011;1652;51.318;6.202;2023-03-08T12:08:01;9.57;;;7.83;;
3280;SDS011;1652;51.318;6.202;2023-03-08T12:10:41;8.07;;;7.37;;
3280;SDS011;1652;51.318;6.202;2023-03-08T12:13:24;8.90;;;8.00;;
3280;SDS011;1652;51.318;6.202;2023-03-08T12:19:45;9.10;;;8.20;;
3280;SDS011;1652;51.318;6.202;2023-03-08T12:24:44;8.90;;;7.97;;
3280;SDS011;1652;51.318;6.202;2023-03-08T12:27:13;13.63;;;7.57;;
3280;SDS011;1652;51.318;6.202;2023-03-08T12:29:53;9.77;;;8.40;;
3280;SDS011;1652;51.318;6.202;2023-03-08T12:32:24;10.00;;;8.40;;
3280;SDS011;1652;51.318;6.202;2023-03-08T12:35:00;8.80;;;7.93;;
3280;SDS011;1652;51.318;6.202;2023-03-08T12:37:32;9.27;;;8.27;;
3280;SDS011;1652;51.318;6.202;2023-03-08T12:40:00;10.47;;;8.57;;
3280;SDS011;1652;51.318;6.202;2023-03-08T12:42:47;9.47;;;8.67;;
3280;SDS011;1652;51.318;6.202;2023-03-08T12:47:59;7.33;;;6.70;;
3280;SDS011;1652;51.318;6.202;2023-03-08T12:50:30;9.47;;;8.30;;
3280;SDS011;1652;51.318;6.202;2023-03-08T12:53:02;8.93;;;8.03;;
3280;SDS011;1652;51.318;6.202;2023-03-08T12:55:58;10.57;;;7.90;;
3280;SDS011;1652;51.318;6.202;2023-03-08T12:58:27;10.00;;;9.10;;
3280;SDS011;1652;51.318;6.202;2023-03-08T13:01:03;10.53;;;8.23;;
3280;SDS011;1652;51.318;6.202;2023-03-08T13:03:36;8.73;;;7.83;;
3280;SDS011;1652;51.318;6.202;2023-03-08T13:08:49;8.67;;;7.87;;
3280;SDS011;1652;51.318;6.202;2023-03-08T13:11:23;9.20;;;8.30;;
3280;SDS011;1652;51.318;6.202;2023-03-08T13:14:02;11.43;;;9.20;;
3280;SDS011;1652;51.318;6.202;2023-03-08T13:16:32;8.17;;;7.37;;
3280;SDS011;1652;51.318;6.202;2023-03-08T13:21:51;9.50;;;8.60;;
3280;SDS011;1652;51.318;6.202;2023-03-08T13:24:35;10.80;;;8.60;;
3280;SDS011;1652;51.318;6.202;2023-03-08T13:27:23;11.60;;;8.43;;
3280;SDS011;1652;51.318;6.202;2023-03-08T13:33:22;9.03;;;8.17;;
3280;SDS011;1652;51.318;6.202;2023-03-08T13:38:22;11.10;;;8.40;;
3280;SDS011;1652;51.318;6.202;2023-03-08T13:40:51;10.10;;;8.50;;
3280;SDS011;1652;51.318;6.202;2023-03-08T13:43:23;9.37;;;8.30;;
3280;SDS011;1652;51.318;6.202;2023-03-08T13:45:53;9.53;;;8.50;;
3280;SDS011;1652;51.318;6.202;2023-03-08T13:48:22;9.13;;;8.10;;
3280;SDS011;1652;51.318;6.202;2023-03-08T13:50:52;14.27;;;8.77;;
3280;SDS011;1652;51.318;6.202;2023-03-08T13:53:20;8.53;;;7.70;;
3280;SDS011;1652;51.318;6.202;2023-03-08T13:55:53;9.80;;;8.70;;
3280;SDS011;1652;51.318;6.202;2023-03-08T14:01:14;15.80;;;9.60;;
3280;SDS011;1652;51.318;6.202;2023-03-08T14:03:44;11.60;;;8.90;;
3280;SDS011;1652;51.318;6.202;2023-03-08T14:08:49;13.80;;;9.33;;
3280;SDS011;1652;51.318;6.202;2023-03-08T14:11:20;9.70;;;8.80;;
3280;SDS011;1652;51.318;6.202;2023-03-08T14:13:51;9.03;;;8.13;;
3280;SDS011;1652;51.318;6.202;2023-03-08T14:16:28;12.47;;;9.10;;
3280;SDS011;1652;51.318;6.202;2023-03-08T14:18:58;13.00;;;9.43;;
3280;SDS011;1652;51.318;6.202;2023-03-08T14:21:34;8.80;;;7.93;;
3280;SDS011;1652;51.318;6.202;2023-03-08T14:24:02;11.90;;;8.23;;
3280;SDS011;1652;51.318;6.202;2023-03-08T14:27:00;13.27;;;9.33;;
3280;SDS011;1652;51.318;6.202;2023-03-08T14:29:29;12.47;;;9.40;;
3280;SDS011;1652;51.318;6.202;2023-03-08T14:32:01;14.10;;;10.20;;
3280;SDS011;1652;51.318;6.202;2023-03-08T14:34:51;11.43;;;8.37;;
3280;SDS011;1652;51.318;6.202;2023-03-08T14:37:45;12.77;;;9.70;;
3280;SDS011;1652;51.318;6.202;2023-03-08T14:42:52;13.47;;;10.10;;
3280;SDS011;1652;51.318;6.202;2023-03-08T14:45:25;25.30;;;14.00;;
3280;SDS011;1652;51.318;6.202;2023-03-08T14:48:22;10.70;;;9.60;;
3280;SDS011;1652;51.318;6.202;2023-03-08T14:50:58;11.90;;;10.70;;
3280;SDS011;1652;51.318;6.202;2023-03-08T14:53:29;15.43;;;12.37;;
3280;SDS011;1652;51.318;6.202;2023-03-08T14:56:25;18.03;;;11.70;;
3280;SDS011;1652;51.318;6.202;2023-03-08T14:58:52;14.57;;;10.97;;
3280;SDS011;1652;51.318;6.202;2023-03-08T15:01:26;16.23;;;11.57;;
3280;SDS011;1652;51.318;6.202;2023-03-08T15:03:57;16.87;;;12.77;;
3280;SDS011;1652;51.318;6.202;2023-03-08T15:06:26;18.13;;;12.77;;
3280;SDS011;1652;51.318;6.202;2023-03-08T15:08:57;22.67;;;13.93;;
3280;SDS011;1652;51.318;6.202;2023-03-08T15:11:25;21.43;;;12.90;;
3280;SDS011;1652;51.318;6.202;2023-03-08T15:13:59;21.50;;;13.00;;
3280;SDS011;1652;51.318;6.202;2023-03-08T15:16:26;22.27;;;14.07;;
3280;SDS011;1652;51.318;6.202;2023-03-08T15:18:53;21.77;;;13.93;;
3280;SDS011;1652;51.318;6.202;2023-03-08T15:21:21;28.80;;;15.37;;
3280;SDS011;1652;51.318;6.202;2023-03-08T15:23:50;22.27;;;14.30;;
3280;SDS011;1652;51.318;6.202;2023-03-08T15:26:21;24.50;;;16.50;;
3280;SDS011;1652;51.318;6.202;2023-03-08T15:28:50;26.90;;;16.70;;
3280;SDS011;1652;51.318;6.202;2023-03-08T15:31:17;29.87;;;18.57;;
3280;SDS011;1652;51.318;6.202;2023-03-08T15:33:43;26.13;;;17.10;;
3280;SDS011;1652;51.318;6.202;2023-03-08T15:36:14;49.40;;;20.77;;
3280;SDS011;1652;51.318;6.202;2023-03-08T15:38:43;34.27;;;19.87;;
3280;SDS011;1652;51.318;6.202;2023-03-08T15:41:11;27.30;;;18.20;;
3280;SDS011;1652;51.318;6.202;2023-03-08T15:43:38;33.10;;;20.30;;
3280;SDS011;1652;51.318;6.202;2023-03-08T15:46:05;30.53;;;17.80;;
3280;SDS011;1652;51.318;6.202;2023-03-08T15:48:34;29.03;;;17.57;;
3280;SDS011;1652;51.318;6.202;2023-03-08T15:51:01;24.57;;;17.43;;
3280;SDS011;1652;51.318;6.202;2023-03-08T15:53:28;30.90;;;17.73;;
3280;SDS011;1652;51.318;6.202;2023-03-08T15:56:01;31.23;;;20.70;;
3280;SDS011;1652;51.318;6.202;2023-03-08T15:58:28;32.90;;;18.80;;
3280;SDS011;1652;51.318;6.202;2023-03-08T16:00:55;34.00;;;20.13;;
3280;SDS011;1652;51.318;6.202;2023-03-08T16:03:21;40.93;;;21.50;;
3280;SDS011;1652;51.318;6.202;2023-03-08T16:05:56;35.53;;;19.60;;
3280;SDS011;1652;51.318;6.202;2023-03-08T16:08:23;31.37;;;17.03;;
3280;SDS011;1652;51.318;6.202;2023-03-08T16:10:51;31.67;;;18.20;;
3280;SDS011;1652;51.318;6.202;2023-03-08T16:13:17;34.27;;;19.77;;
3280;SDS011;1652;51.318;6.202;2023-03-08T16:15:47;41.33;;;20.30;;
3280;SDS011;1652;51.318;6.202;2023-03-08T16:18:14;29.67;;;16.73;;
3280;SDS011;1652;51.318;6.202;2023-03-08T16:20:41;38.57;;;20.73;;
3280;SDS011;1652;51.318;6.202;2023-03-08T16:23:11;39.33;;;20.60;;
3280;SDS011;1652;51.318;6.202;2023-03-08T16:25:38;42.13;;;21.40;;
3280;SDS011;1652;51.318;6.202;2023-03-08T16:28:08;35.70;;;20.90;;
3280;SDS011;1652;51.318;6.202;2023-03-08T16:30:35;40.40;;;21.97;;
3280;SDS011;1652;51.318;6.202;2023-03-08T16:33:04;37.67;;;20.20;;